Terminal Aerodrome Forecast
Issued by NWS Sterling, VA

Current Version | Previous Version | Graphics & Text | Print | Product List | Glossary On
Versions: 1 2 3 4 5 6 7 8 9 10 11 12 13 14 15 16 17 18 19 20 21 22 23 24
000
FTUS41 KLWX 241000 AAB
TAFDCA
TAF AMD
KDCA 241006Z 2410/2506 18013KT P6SM OVC035
     FM241800 20016G25KT P6SM SCT060
     FM250000 20011KT P6SM BKN250
     FM250500 25007KT P6SM SCT150=

USA.gov is the U.S. government's official web portal to all federal, state and local government web resources and services.